Time;durP1;ratioP1;P1;durP2;ratioP2;P2;SDS_P1;SDS_P2;PMS_P1;PMS_P2;Temp;Humidity;BMP_temperature;BMP_pressure;BME280_temperature;BME280_humidity;BME280_pressure;Samples;Min_cycle;Max_cycle;Signal;HPM_P1;HPM_P2
2023/09/30 00:03:45;;;;;;;17.20;10.03;;;;;;;24.14;42.33;100730.13;31497083;28;20139;-83
2023/09/30 00:18:48;;;;;;;17.83;10.07;;;;;;;24.04;42.52;100724.03;31505545;28;20040;-83
2023/09/30 00:33:50;;;;;;;17.40;9.85;;;;;;;23.97;42.20;100720.97;31528649;28;20045;-83
2023/09/30 00:48:54;;;;;;;17.80;9.43;;;;;;;23.85;42.74;100720.16;31493982;28;20040;-82
2023/09/30 01:03:58;;;;;;;17.75;9.68;;;;;;;23.98;42.49;100717.72;31485361;28;20344;-84
2023/09/30 01:19:02;;;;;;;17.85;9.13;;;;;;;23.64;42.55;100718.75;31446250;28;20059;-84
2023/09/30 01:34:05;;;;;;;16.37;8.07;;;;;;;23.61;42.66;100711.44;31479835;28;20060;-84
2023/09/30 01:49:07;;;;;;;16.50;9.47;;;;;;;23.60;42.28;100709.94;31469367;28;20500;-83
2023/09/30 02:04:09;;;;;;;16.98;8.75;;;;;;;23.64;42.37;100708.44;31505685;28;20193;-84
2023/09/30 02:19:13;;;;;;;16.77;8.63;;;;;;;23.05;43.75;100700.66;31537384;28;20055;-81
2023/09/30 02:34:15;;;;;;;23.07;9.30;;;;;;;22.98;43.89;100697.56;31521733;28;20131;-83
2023/09/30 02:49:17;;;;;;;17.80;8.85;;;;;;;22.96;44.16;100686.97;31515649;28;20044;-82
2023/09/30 03:04:20;;;;;;;16.17;9.15;;;;;;;22.70;44.84;100686.94;31507340;28;20136;-83
2023/09/30 03:19:22;;;;;;;22.27;10.30;;;;;;;22.30;45.72;100692.56;31489477;28;20057;-85
2023/09/30 03:34:24;;;;;;;26.45;10.80;;;;;;;22.22;45.87;100696.97;31500530;28;20393;-81
2023/09/30 03:49:28;;;;;;;20.48;9.35;;;;;;;21.94;46.57;100705.66;31514835;28;20412;-82
2023/09/30 04:04:31;;;;;;;19.87;10.10;;;;;;;22.02;46.73;100694.97;31493558;28;20052;-82
2023/09/30 04:19:33;;;;;;;21.27;11.05;;;;;;;22.24;47.30;100705.56;31517870;28;20052;-82
2023/09/30 04:34:35;;;;;;;20.35;9.77;;;;;;;22.62;47.71;100710.78;31512650;28;20048;-82
2023/09/30 04:49:38;;;;;;;20.90;11.23;;;;;;;23.13;47.38;100720.38;31512273;28;20099;-82
2023/09/30 05:04:40;;;;;;;22.42;11.15;;;;;;;23.77;46.85;100714.31;31502200;28;20071;-81
2023/09/30 05:19:44;;;;;;;22.48;12.10;;;;;;;24.50;46.14;100723.00;31486186;28;20083;-82
2023/09/30 05:34:48;;;;;;;23.42;11.55;;;;;;;25.58;44.85;100728.16;31503395;28;20093;-80
2023/09/30 05:49:50;;;;;;;20.88;10.80;;;;;;;27.00;43.36;100723.84;31526246;28;20442;-80
2023/09/30 06:04:53;;;;;;;29.80;11.17;;;;;;;27.85;42.04;100733.00;31513634;28;20060;-81
2023/09/30 06:19:55;;;;;;;21.90;10.77;;;;;;;28.58;41.15;100735.69;31518327;28;20052;-81
2023/09/30 06:35:05;;;;;;;21.58;10.85;;;;;;;29.29;40.03;100735.13;31518315;28;20052;-81
2023/09/30 06:50:21;;;;;;;20.48;11.25;;;;;;;30.42;38.44;100731.75;31464977;28;20147;-76
2023/09/30 07:05:23;;;;;;;22.67;10.80;;;;;;;31.07;37.68;100724.44;31494260;28;20048;-76
2023/09/30 07:20:26;;;;;;;21.17;9.90;;;;;;;31.24;37.02;100716.38;31476076;28;20048;-76
2023/09/30 07:35:28;;;;;;;23.67;11.02;;;;;;;32.46;35.69;100711.50;31443603;28;20102;-77
2023/09/30 07:50:31;;;;;;;18.88;9.57;;;;;;;34.16;33.71;100710.38;31454114;28;20094;-76
2023/09/30 08:05:33;;;;;;;22.90;13.23;;;;;;;34.62;32.76;100704.53;31461356;28;20084;-77
2023/09/30 08:20:36;;;;;;;22.02;10.68;;;;;;;35.34;32.33;100686.72;31476670;28;20411;-76
2023/09/30 08:35:38;;;;;;;22.15;8.63;;;;;;;36.12;31.44;100683.22;31443620;28;20055;-79
2023/09/30 08:50:42;;;;;;;18.58;8.32;;;;;;;36.94;29.75;100667.00;31475290;28;20071;-78
2023/09/30 09:05:44;;;;;;;11.40;5.40;;;;;;;37.16;28.05;100655.28;31462620;28;20053;-80
2023/09/30 09:20:46;;;;;;;14.15;7.97;;;;;;;37.25;27.71;100651.00;31519399;28;20403;-81
2023/09/30 09:35:48;;;;;;;8.65;4.38;;;;;;;37.07;26.38;100632.63;31492248;28;20051;-83
2023/09/30 09:50:51;;;;;;;7.57;3.75;;;;;;;37.08;26.26;100619.97;31507707;28;20040;-78
2023/09/30 10:05:54;;;;;;;6.93;3.65;;;;;;;37.97;25.31;100600.31;31478659;28;20053;-77
2023/09/30 10:21:08;;;;;;;9.45;6.05;;;;;;;37.64;24.97;100597.22;31474315;28;20051;-79
2023/09/30 10:36:10;;;;;;;26.52;14.00;;;;;;;37.64;25.42;100571.72;31497807;28;20147;-77
2023/09/30 10:51:15;;;;;;;10.38;6.90;;;;;;;37.94;25.46;100571.09;31493356;28;20560;-78
2023/09/30 11:06:21;;;;;;;6.18;3.90;;;;;;;37.74;24.97;100552.66;31502007;28;20389;-78
2023/09/30 11:21:24;;;;;;;9.73;3.83;;;;;;;38.17;24.52;100540.16;31481144;28;20101;-78
2023/09/30 11:36:27;;;;;;;18.10;14.43;;;;;;;38.51;24.18;100529.69;31481224;28;20056;-71
2023/09/30 11:51:29;;;;;;;8.60;4.05;;;;;;;39.23;24.59;100499.03;31462243;28;20048;-73
2023/09/30 12:06:34;;;;;;;8.30;4.00;;;;;;;35.70;25.90;100496.19;31446829;28;20155;-73
2023/09/30 12:21:36;;;;;;;10.90;4.72;;;;;;;33.63;27.18;100499.41;31459865;28;20147;-73
2023/09/30 12:36:39;;;;;;;14.55;5.63;;;;;;;33.01;28.21;100483.31;31453005;28;20130;-73
2023/09/30 12:51:46;;;;;;;12.52;4.75;;;;;;;32.58;29.17;100471.00;31486481;28;20048;-73
2023/09/30 13:06:50;;;;;;;9.65;4.82;;;;;;;32.34;29.46;100452.66;31438480;28;20500;-73
2023/09/30 13:21:52;;;;;;;10.32;5.70;;;;;;;32.09;29.77;100444.03;31443768;28;20504;-72
2023/09/30 13:36:55;;;;;;;24.67;16.33;;;;;;;32.04;29.92;100428.09;31449329;28;20045;-74
2023/09/30 13:51:58;;;;;;;9.20;4.80;;;;;;;31.63;30.33;100420.00;31446790;28;20072;-74
2023/09/30 14:07:00;;;;;;;13.25;5.32;;;;;;;31.38;31.00;100411.34;31464723;28;20463;-74
2023/09/30 14:22:04;;;;;;;20.13;8.90;;;;;;;31.20;31.62;100415.94;31516979;28;20048;-76
2023/09/30 14:37:07;;;;;;;22.38;9.48;;;;;;;30.98;32.10;100413.75;31475951;28;20144;-75
2023/09/30 14:52:09;;;;;;;14.15;7.13;;;;;;;30.54;32.57;100406.00;31472468;28;20048;-74
2023/09/30 15:07:14;;;;;;;12.45;5.85;;;;;;;30.21;33.60;100394.97;31450119;28;20052;-73
2023/09/30 15:22:16;;;;;;;16.35;6.60;;;;;;;29.69;34.65;100407.91;31476317;28;20056;-73
2023/09/30 15:37:18;;;;;;;;;;;;;;;29.42;36.76;100413.59;31482227;28;20053;-72
2023/09/30 15:52:21;;;;;;;52.15;18.95;;;;;;;29.01;36.02;100405.06;31467266;28;19967;-74
2023/09/30 16:07:23;;;;;;;22.20;10.73;;;;;;;28.60;36.71;100414.72;31439104;28;20052;-73
2023/09/30 16:22:25;;;;;;;21.57;10.10;;;;;;;28.35;36.69;100405.78;31449758;28;20573;-76
2023/09/30 16:37:27;;;;;;;19.80;11.33;;;;;;;28.10;37.37;100412.81;31463231;28;20055;-83
2023/09/30 16:52:30;;;;;;;25.83;12.33;;;;;;;27.93;37.88;100404.69;31461741;28;20418;-84
2023/09/30 17:07:32;;;;;;;31.17;11.90;;;;;;;27.70;38.14;100400.75;31481074;28;20609;-84
2023/09/30 17:22:34;;;;;;;16.67;8.77;;;;;;;27.52;38.67;100407.84;31470436;28;20048;-74
2023/09/30 17:37:37;;;;;;;17.63;9.07;;;;;;;27.22;38.98;100388.50;31466667;28;20048;-73
2023/09/30 17:52:39;;;;;;;17.08;10.32;;;;;;;27.04;38.90;100400.38;31456958;28;23016;-74
2023/09/30 18:07:43;;;;;;;21.50;8.97;;;;;;;26.85;39.61;100394.78;31496029;28;20412;-76
2023/09/30 18:22:46;;;;;;;18.50;9.35;;;;;;;26.70;39.48;100384.03;31481994;28;20072;-74
2023/09/30 18:37:48;;;;;;;24.47;11.97;;;;;;;26.38;40.51;100383.13;31455714;28;20076;-75
2023/09/30 18:52:50;;;;;;;65.57;30.40;;;;;;;26.24;40.88;100387.03;31463638;28;20091;-75
2023/09/30 19:07:52;;;;;;;18.63;8.40;;;;;;;25.94;41.16;100390.59;31464451;28;20139;-75
2023/09/30 19:22:54;;;;;;;24.73;9.93;;;;;;;25.76;41.35;100391.22;31514484;28;20817;-73
2023/09/30 19:37:56;;;;;;;19.15;9.27;;;;;;;25.63;41.48;100385.50;31485615;28;20481;-75
2023/09/30 19:52:59;;;;;;;20.47;8.43;;;;;;;25.67;41.48;100386.00;31459772;28;20492;-76
2023/09/30 20:08:03;;;;;;;19.25;11.55;;;;;;;25.61;41.54;100399.13;31435070;28;20059;-76
2023/09/30 20:23:06;;;;;;;29.90;13.98;;;;;;;25.52;41.77;100396.66;31457322;28;20421;-75
2023/09/30 20:38:08;;;;;;;21.40;9.93;;;;;;;25.28;42.54;100398.06;31455354;28;20575;-74
2023/09/30 20:53:12;;;;;;;25.67;9.60;;;;;;;24.66;43.57;100397.53;31445730;28;20139;-74
2023/09/30 21:08:21;;;;;;;16.02;9.02;;;;;;;24.39;43.54;100382.44;31441822;28;20048;-80
2023/09/30 21:23:23;;;;;;;19.77;8.63;;;;;;;24.10;43.23;100364.28;31463554;28;20053;-75
2023/09/30 21:38:25;;;;;;;17.80;8.35;;;;;;;23.90;43.66;100367.31;31459291;28;20132;-72
2023/09/30 21:53:28;;;;;;;31.63;14.88;;;;;;;23.84;44.66;100361.03;31488470;28;20070;-80
2023/09/30 22:08:31;;;;;;;33.50;12.55;;;;;;;23.96;43.77;100365.31;31462070;28;20476;-80
2023/09/30 22:23:33;;;;;;;56.57;26.67;;;;;;;23.86;43.65;100355.72;31478181;28;20493;-80
2023/09/30 22:38:35;;;;;;;29.25;12.43;;;;;;;23.72;43.26;100354.72;31499646;28;20135;-79
2023/09/30 22:53:37;;;;;;;22.15;9.98;;;;;;;23.73;43.04;100347.16;31487470;28;20052;-81
2023/09/30 23:08:41;;;;;;;23.40;10.75;;;;;;;23.60;43.18;100344.16;31479849;28;20064;-79
2023/09/30 23:23:43;;;;;;;25.80;10.15;;;;;;;23.34;43.79;100342.31;31478412;28;20051;-80
2023/09/30 23:38:45;;;;;;;19.98;10.35;;;;;;;23.02;44.42;100335.44;31495733;28;20045;-80
2023/09/30 23:53:49;;;;;;;24.92;10.32;;;;;;;22.95;44.37;100330.38;31467185;28;20413;-79
